Lake Como, Florida
Current Conditions -  °F | °C
As of 2:35 AM on Monday 22 Dec 2014 (Local Time) from K28J Reporting Station
Light Rain Light Rain  
Wind Chill: 63°   Ceiling: 3100
Heat Index: 63°   Visibility: 3mi
Dew Point: 63°   Wind: 0mph
Humidity: 100%   Direction: NA
Pressure: 30.03"   Gusts: NA
Location:  29.48°N, 81.57°W
Report Text: K28J 220735Z AUTO 00000KT 3SM -RA BKN031 OVC038 17/17 A3003 RMK AO2 P0009
Loading
Personal Weather Stations






























Interactive Weather Map New forecast layout! Learn more

10-Day Weather Forecast

Advertisements
Track Severe Weather on mobile